Darstellungsparameter: Aktuell verwendete Einstellungen:
Skalierung der Graphiken ... ?
xyx+y,   Skalierungsfaktor:      Skalierung: Modus: x, Faktor: 1
Darstellungszeitraum ... ?
Vom - - bis: - -   Zeitraum: 13.01.2020 - 15.01.2020
Min/Max/Avg-Anzeige ... ?
Zeige MMA aktuell
Zeige MMA Monat
Zeige MMA alles
Zeige --A aktuell
Zeige --A Monat
Zeige --A alles
Keine MMA-Anzeige
MMA:
Average (ber die Originaldaten)
MMA-Basis: 13.01.2020 - 15.01.2020
Quicknavigation für Darstellung... ?
Tage:      1T, 2T, 3T, 5T -1T -2T -3T -5T +1T +2T +3T +5T
Wochen: 1W, 2W, 3W -1W -2W -3W +1W +2W +3W
Monate: 1M, 3M, 6M -1M -3M -6M +1M +3M +6M
Jahre:    1J, 3J, 5J, 10J -1J -3J -5J -10J +1J +3J +5J +10J
Nutze für die Darstellung ... ?
Originaldaten oder Mittelwerte auf ...
Stundenbasis Tagesbasis Wochenbasis
Monatsbasis Jahresbasis      Datenbasis: Original-Daten
Darstellen als:
Statistik (Auto) Statistik J:M      Darstellung:
Zur Graphik,    zurück zur Übersicht aller Sensoren.
 
Tabellarische Datenbersicht: ?
 
Sensor: Nr:Datum:Temp:Abs-Feuchte:Windchill:Wind:
Aussen-T/F 1 13-01-2020 00:00:00 6.4 C 6.78 g/m*3 3.55 C 14.5 km/h
2 13-01-2020 00:05:00 6.6 C 6.95 g/m*3 4.32 C 11.3 km/h
3 13-01-2020 00:10:00 6.7 C 6.91 g/m*3 4.75 C 9.7 km/h
4 13-01-2020 00:15:00 6.7 C 6.91 g/m*3 6.7 C 4.8 km/h
5 13-01-2020 00:20:00 6.7 C 6.91 g/m*3 4.17 C 12.9 km/h
6 13-01-2020 00:25:00 6.7 C 6.91 g/m*3 4.75 C 9.7 km/h
7 13-01-2020 00:30:00 6.8 C 6.96 g/m*3 4.87 C 9.7 km/h
8 13-01-2020 00:35:00 6.9 C 7.01 g/m*3 5.34 C 8.1 km/h
9 13-01-2020 00:40:00 7 C 7.05 g/m*3 5.11 C 9.7 km/h
10 13-01-2020 00:45:00 7.1 C 7.1 g/m*3 4.19 C 16.1 km/h
11 13-01-2020 00:50:00 7.1 C 7.1 g/m*3 5.58 C 8.1 km/h
12 13-01-2020 00:55:00 7.1 C 7.1 g/m*3 5.58 C 8.1 km/h
13 13-01-2020 01:00:00 7.1 C 7.1 g/m*3 7.1 C 3.2 km/h
14 13-01-2020 01:05:00 7.1 C 7.1 g/m*3 6.02 C 6.4 km/h
15 13-01-2020 01:10:00 7 C 7.13 g/m*3 5.11 C 9.7 km/h
16 13-01-2020 01:15:00 6.9 C 7.08 g/m*3 5.34 C 8.1 km/h
17 13-01-2020 01:20:00 6.9 C 7.08 g/m*3 6.9 C 0 km/h
18 13-01-2020 01:25:00 6.8 C 7.04 g/m*3 6.8 C 3.2 km/h
19 13-01-2020 01:30:00 6.7 C 6.99 g/m*3 6.7 C 3.2 km/h
20 13-01-2020 01:35:00 6.7 C 6.99 g/m*3 6.7 C 1.6 km/h
21 13-01-2020 01:40:00 6.6 C 7.02 g/m*3 6.6 C 3.2 km/h
22 13-01-2020 01:45:00 6.6 C 7.02 g/m*3 6.6 C 3.2 km/h
23 13-01-2020 01:50:00 6.5 C 6.97 g/m*3 6.5 C 1.6 km/h
24 13-01-2020 01:55:00 6.4 C 6.93 g/m*3 6.4 C 3.2 km/h
25 13-01-2020 02:00:00 6.4 C 6.93 g/m*3 6.4 C 4.8 km/h
Sensor: Nr:Datum:Temp:Abs-Feuchte:Windchill:Wind:
Aussen-T/F 26 13-01-2020 02:05:00 6.5 C 7.05 g/m*3 6.5 C 4.8 km/h
27 13-01-2020 02:10:00 6.5 C 7.05 g/m*3 6.5 C 4.8 km/h
28 13-01-2020 02:15:00 6.6 C 7.1 g/m*3 5.44 C 6.4 km/h
29 13-01-2020 02:20:00 6.6 C 7.1 g/m*3 6.6 C 4.8 km/h
30 13-01-2020 02:25:00 6.6 C 7.1 g/m*3 6.6 C 4.8 km/h
31 13-01-2020 02:30:00 6.6 C 7.1 g/m*3 6.6 C 4.8 km/h
32 13-01-2020 02:35:00 6.6 C 7.1 g/m*3 6.6 C 3.2 km/h
33 13-01-2020 02:40:00 6.6 C 7.1 g/m*3 6.6 C 3.2 km/h
34 13-01-2020 02:45:00 6.6 C 7.1 g/m*3 6.6 C 1.6 km/h
35 13-01-2020 02:50:00 6.6 C 7.1 g/m*3 6.6 C 0 km/h
36 13-01-2020 02:55:00 6.6 C 7.1 g/m*3 6.6 C 1.6 km/h
37 13-01-2020 03:00:00 6.5 C 7.05 g/m*3 6.5 C 1.6 km/h
38 13-01-2020 03:05:00 6.4 C 7 g/m*3 6.4 C 1.6 km/h
39 13-01-2020 03:10:00 6.4 C 7 g/m*3 6.4 C 1.6 km/h
40 13-01-2020 03:15:00 6.4 C 7 g/m*3 6.4 C 1.6 km/h
41 13-01-2020 03:20:00 6.4 C 7 g/m*3 6.4 C 1.6 km/h
42 13-01-2020 03:25:00 6.3 C 6.96 g/m*3 6.3 C 0 km/h
43 13-01-2020 03:30:00 6.2 C 6.84 g/m*3 6.2 C 1.6 km/h
44 13-01-2020 03:35:00 5.9 C 6.71 g/m*3 5.9 C 0 km/h
45 13-01-2020 03:40:00 5.7 C 6.62 g/m*3 5.7 C 0 km/h
46 13-01-2020 03:45:00 5.6 C 6.57 g/m*3 5.6 C 0 km/h
47 13-01-2020 03:50:00 5.4 C 6.49 g/m*3 5.4 C 0 km/h
48 13-01-2020 03:55:00 5.2 C 6.4 g/m*3 5.2 C 0 km/h
49 13-01-2020 04:00:00 5.1 C 6.36 g/m*3 5.1 C 0 km/h
50 13-01-2020 04:05:00 5 C 6.39 g/m*3 5 C 0 km/h
Sensor: Nr:Datum:Temp:Abs-Feuchte:Windchill:Wind:
Aussen-T/F 51 13-01-2020 04:10:00 4.9 C 6.35 g/m*3 4.9 C 3.2 km/h
52 13-01-2020 04:15:00 4.8 C 6.3 g/m*3 4.8 C 1.6 km/h
53 13-01-2020 04:20:00 4.8 C 6.3 g/m*3 3.36 C 6.4 km/h
54 13-01-2020 04:25:00 4.8 C 6.3 g/m*3 4.8 C 3.2 km/h
55 13-01-2020 04:30:00 4.8 C 6.3 g/m*3 4.8 C 3.2 km/h
56 13-01-2020 04:35:00 4.7 C 6.26 g/m*3 4.7 C 3.2 km/h
57 13-01-2020 04:40:00 4.7 C 6.33 g/m*3 4.7 C 3.2 km/h
58 13-01-2020 04:45:00 4.7 C 6.33 g/m*3 4.7 C 3.2 km/h
59 13-01-2020 04:50:00 4.7 C 6.33 g/m*3 4.7 C 1.6 km/h
60 13-01-2020 04:55:00 4.7 C 6.33 g/m*3 4.7 C 1.6 km/h
61 13-01-2020 05:00:00 4.7 C 6.33 g/m*3 4.7 C 1.6 km/h
62 13-01-2020 05:05:00 4.8 C 6.37 g/m*3 4.8 C 3.2 km/h
63 13-01-2020 05:10:00 4.9 C 6.48 g/m*3 4.9 C 1.6 km/h
64 13-01-2020 05:15:00 5 C 6.52 g/m*3 5 C 1.6 km/h
65 13-01-2020 05:20:00 5 C 6.46 g/m*3 5 C 1.6 km/h
66 13-01-2020 05:25:00 5.1 C 6.5 g/m*3 5.1 C 1.6 km/h
67 13-01-2020 05:30:00 5.1 C 6.57 g/m*3 5.1 C 1.6 km/h
68 13-01-2020 05:35:00 5.2 C 6.61 g/m*3 5.2 C 0 km/h
69 13-01-2020 05:40:00 5.2 C 6.61 g/m*3 5.2 C 1.6 km/h
70 13-01-2020 05:45:00 5.3 C 6.65 g/m*3 5.3 C 1.6 km/h
71 13-01-2020 05:50:00 5.3 C 6.65 g/m*3 5.3 C 0 km/h
72 13-01-2020 05:55:00 5.4 C 6.7 g/m*3 5.4 C 0 km/h
73 13-01-2020 06:00:00 5.4 C 6.7 g/m*3 5.4 C 0 km/h
74 13-01-2020 06:05:00 5.5 C 6.74 g/m*3 5.5 C 0 km/h
75 13-01-2020 06:10:00 5.6 C 6.79 g/m*3 5.6 C 0 km/h
Sensor: Nr:Datum:Temp:Abs-Feuchte:Windchill:Wind:
Aussen-T/F 76 13-01-2020 06:15:00 5.6 C 6.79 g/m*3 5.6 C 0 km/h
77 13-01-2020 06:20:00 5.5 C 6.74 g/m*3 5.5 C 3.2 km/h
78 13-01-2020 06:25:00 5.4 C 6.63 g/m*3 5.4 C 0 km/h
79 13-01-2020 06:30:00 5.3 C 6.58 g/m*3 5.3 C 0 km/h
80 13-01-2020 06:35:00 5.2 C 6.54 g/m*3 5.2 C 0 km/h
81 13-01-2020 06:40:00 5.1 C 6.5 g/m*3 5.1 C 0 km/h
82 13-01-2020 06:45:00 5 C 6.46 g/m*3 5 C 0 km/h
83 13-01-2020 06:50:00 4.9 C 6.41 g/m*3 4.9 C 0 km/h
84 13-01-2020 06:55:00 4.9 C 6.41 g/m*3 2.99 C 8.1 km/h
85 13-01-2020 07:00:00 4.9 C 6.41 g/m*3 4.9 C 4.8 km/h
86 13-01-2020 07:05:00 4.9 C 6.41 g/m*3 3.48 C 6.4 km/h
87 13-01-2020 07:10:00 4.8 C 6.37 g/m*3 4.8 C 4.8 km/h
88 13-01-2020 07:15:00 4.8 C 6.37 g/m*3 4.8 C 4.8 km/h
89 13-01-2020 07:20:00 4.8 C 6.37 g/m*3 2.87 C 8.1 km/h
90 13-01-2020 07:25:00 4.8 C 6.37 g/m*3 4.8 C 1.6 km/h
91 13-01-2020 07:30:00 4.7 C 6.33 g/m*3 4.7 C 1.6 km/h
92 13-01-2020 07:35:00 4.7 C 6.33 g/m*3 4.7 C 0 km/h
93 13-01-2020 07:40:00 4.7 C 6.33 g/m*3 4.7 C 0 km/h
94 13-01-2020 07:45:00 4.7 C 6.33 g/m*3 4.7 C 0 km/h
95 13-01-2020 07:50:00 4.7 C 6.33 g/m*3 4.7 C 0 km/h
96 13-01-2020 07:55:00 4.7 C 6.33 g/m*3 4.7 C 0 km/h
97 13-01-2020 08:00:00 4.7 C 6.33 g/m*3 4.7 C 0 km/h
98 13-01-2020 08:05:00 4.7 C 6.33 g/m*3 4.7 C 0 km/h
99 13-01-2020 08:10:00 4.7 C 6.33 g/m*3 4.7 C 1.6 km/h
100 13-01-2020 08:15:00 4.7 C 6.33 g/m*3 4.7 C 0 km/h
Sensor: Nr:Datum:Temp:Abs-Feuchte:Windchill:Wind:
Aussen-T/F 101 13-01-2020 08:20:00 4.8 C 6.37 g/m*3 4.8 C 0 km/h
102 13-01-2020 08:25:00 4.8 C 6.37 g/m*3 4.8 C 1.6 km/h
103 13-01-2020 08:30:00 4.8 C 6.37 g/m*3 4.8 C 0 km/h
104 13-01-2020 08:35:00 4.9 C 6.48 g/m*3 4.9 C 3.2 km/h
105 13-01-2020 08:40:00 5 C 6.46 g/m*3 5 C 3.2 km/h
106 13-01-2020 08:45:00 5.1 C 6.57 g/m*3 5.1 C 3.2 km/h
107 13-01-2020 08:50:00 5.2 C 6.61 g/m*3 5.2 C 1.6 km/h
108 13-01-2020 08:55:00 5.2 C 6.61 g/m*3 5.2 C 0 km/h
109 13-01-2020 09:00:00 5.3 C 6.65 g/m*3 5.3 C 3.2 km/h
110 13-01-2020 09:05:00 5.3 C 6.58 g/m*3 5.3 C 1.6 km/h
111 13-01-2020 09:10:00 5.4 C 6.7 g/m*3 5.4 C 1.6 km/h
112 13-01-2020 09:15:00 5.5 C 6.67 g/m*3 5.5 C 1.6 km/h
113 13-01-2020 09:20:00 5.6 C 6.72 g/m*3 5.6 C 1.6 km/h
114 13-01-2020 09:25:00 5.6 C 6.72 g/m*3 5.6 C 3.2 km/h
115 13-01-2020 09:30:00 5.6 C 6.72 g/m*3 5.6 C 3.2 km/h
116 13-01-2020 09:35:00 5.8 C 6.81 g/m*3 4.52 C 6.4 km/h
117 13-01-2020 09:40:00 5.8 C 6.81 g/m*3 5.8 C 4.8 km/h
118 13-01-2020 09:45:00 5.9 C 6.85 g/m*3 5.9 C 3.2 km/h
119 13-01-2020 09:50:00 6 C 6.82 g/m*3 6 C 3.2 km/h
120 13-01-2020 09:55:00 6.1 C 6.87 g/m*3 6.1 C 3.2 km/h
121 13-01-2020 10:00:00 6.2 C 6.91 g/m*3 6.2 C 1.6 km/h
122 13-01-2020 10:05:00 6.2 C 6.91 g/m*3 6.2 C 1.6 km/h
123 13-01-2020 10:10:00 6.3 C 6.96 g/m*3 6.3 C 4.8 km/h
124 13-01-2020 10:15:00 6.3 C 6.96 g/m*3 6.3 C 3.2 km/h
125 13-01-2020 10:20:00 6.4 C 7 g/m*3 6.4 C 3.2 km/h
Sensor: Nr:Datum:Temp:Abs-Feuchte:Windchill:Wind:
Aussen-T/F 126 13-01-2020 10:25:00 6.5 C 6.97 g/m*3 6.5 C 4.8 km/h
127 13-01-2020 10:30:00 6.7 C 7.07 g/m*3 6.7 C 4.8 km/h
128 13-01-2020 10:35:00 6.8 C 7.11 g/m*3 6.8 C 3.2 km/h
129 13-01-2020 10:40:00 6.9 C 7.08 g/m*3 6.9 C 4.8 km/h
130 13-01-2020 10:45:00 7 C 7.13 g/m*3 5.9 C 6.4 km/h
131 13-01-2020 10:50:00 7.1 C 7.1 g/m*3 4.92 C 11.3 km/h
132 13-01-2020 10:55:00 7.2 C 7.14 g/m*3 5.35 C 9.7 km/h
133 13-01-2020 11:00:00 7.2 C 7.14 g/m*3 5.35 C 9.7 km/h
134 13-01-2020 11:05:00 7.3 C 7.19 g/m*3 6.25 C 6.4 km/h
135 13-01-2020 11:10:00 7.3 C 7.19 g/m*3 6.25 C 6.4 km/h
136 13-01-2020 11:15:00 7.4 C 7.24 g/m*3 7.4 C 4.8 km/h
137 13-01-2020 11:20:00 7.5 C 7.2 g/m*3 6.48 C 6.4 km/h
138 13-01-2020 11:25:00 7.6 C 7.25 g/m*3 6.6 C 6.4 km/h
139 13-01-2020 11:30:00 7.7 C 7.3 g/m*3 7.7 C 0 km/h
140 13-01-2020 11:35:00 7.8 C 7.35 g/m*3 7.8 C 4.8 km/h
141 13-01-2020 11:40:00 7.9 C 7.31 g/m*3 7.9 C 3.2 km/h
142 13-01-2020 11:45:00 7.9 C 7.31 g/m*3 7.9 C 4.8 km/h
143 13-01-2020 11:50:00 8.1 C 7.41 g/m*3 8.1 C 3.2 km/h
144 13-01-2020 11:55:00 8.1 C 7.41 g/m*3 8.1 C 4.8 km/h
145 13-01-2020 12:00:00 8.2 C 7.45 g/m*3 8.2 C 1.6 km/h
146 13-01-2020 12:05:00 8.2 C 7.45 g/m*3 8.2 C 0 km/h
147 13-01-2020 12:10:00 8.2 C 7.45 g/m*3 8.2 C 3.2 km/h
148 13-01-2020 12:15:00 8.2 C 7.37 g/m*3 7.29 C 6.4 km/h
149 13-01-2020 12:20:00 8.2 C 7.37 g/m*3 8.2 C 3.2 km/h
150 13-01-2020 12:25:00 8.3 C 7.42 g/m*3 8.3 C 1.6 km/h
Sensor: Nr:Datum:Temp:Abs-Feuchte:Windchill:Wind:
Aussen-T/F 151 13-01-2020 12:30:00 8.3 C 7.33 g/m*3 8.3 C 4.8 km/h
152 13-01-2020 12:35:00 8.3 C 7.33 g/m*3 8.3 C 3.2 km/h
153 13-01-2020 12:40:00 8.3 C 7.33 g/m*3 8.3 C 3.2 km/h
154 13-01-2020 12:45:00 8.3 C 7.33 g/m*3 8.3 C 0 km/h
155 13-01-2020 12:50:00 8.3 C 7.33 g/m*3 8.3 C 0 km/h
156 13-01-2020 12:55:00 8.3 C 7.33 g/m*3 8.3 C 4.8 km/h
157 13-01-2020 13:00:00 8.3 C 7.42 g/m*3 8.3 C 3.2 km/h
158 13-01-2020 13:05:00 8.3 C 7.5 g/m*3 8.3 C 0 km/h
159 13-01-2020 13:10:00 8.2 C 7.37 g/m*3 8.2 C 4.8 km/h
160 13-01-2020 13:15:00 8.2 C 7.37 g/m*3 8.2 C 4.8 km/h
161 13-01-2020 13:20:00 8.2 C 7.37 g/m*3 8.2 C 1.6 km/h
162 13-01-2020 13:25:00 8.1 C 7.32 g/m*3 8.1 C 3.2 km/h
163 13-01-2020 13:30:00 8.1 C 7.32 g/m*3 8.1 C 3.2 km/h
164 13-01-2020 13:35:00 8.1 C 7.41 g/m*3 8.1 C 3.2 km/h
165 13-01-2020 13:40:00 8.1 C 7.41 g/m*3 7.17 C 6.4 km/h
166 13-01-2020 13:45:00 8.1 C 7.41 g/m*3 8.1 C 3.2 km/h
167 13-01-2020 13:50:00 8.1 C 7.41 g/m*3 8.1 C 3.2 km/h
168 13-01-2020 13:55:00 8.1 C 7.49 g/m*3 6.75 C 8.1 km/h
169 13-01-2020 14:00:00 7.9 C 7.39 g/m*3 7.9 C 1.6 km/h
170 13-01-2020 14:05:00 7.9 C 7.47 g/m*3 7.9 C 0 km/h
171 13-01-2020 14:10:00 7.9 C 7.47 g/m*3 7.9 C 0 km/h
172 13-01-2020 14:15:00 7.9 C 7.47 g/m*3 7.9 C 0 km/h
173 13-01-2020 14:20:00 7.8 C 7.43 g/m*3 7.8 C 3.2 km/h
174 13-01-2020 14:25:00 7.9 C 7.56 g/m*3 7.9 C 0 km/h
175 13-01-2020 14:30:00 7.9 C 7.56 g/m*3 7.9 C 0 km/h
Sensor: Nr:Datum:Temp:Abs-Feuchte:Windchill:Wind:
Aussen-T/F 176 13-01-2020 14:35:00 7.9 C 7.56 g/m*3 7.9 C 0 km/h
177 13-01-2020 14:40:00 7.9 C 7.47 g/m*3 7.9 C 0 km/h
178 13-01-2020 14:45:00 7.9 C 7.47 g/m*3 7.9 C 1.6 km/h
179 13-01-2020 14:50:00 7.8 C 7.26 g/m*3 7.8 C 1.6 km/h
180 13-01-2020 14:55:00 7.8 C 7.18 g/m*3 7.8 C 4.8 km/h
181 13-01-2020 15:00:00 7.9 C 7.31 g/m*3 7.9 C 4.8 km/h
182 13-01-2020 15:05:00 7.9 C 7.31 g/m*3 7.9 C 1.6 km/h
183 13-01-2020 15:10:00 7.9 C 7.31 g/m*3 7.9 C 3.2 km/h
184 13-01-2020 15:15:00 7.9 C 7.23 g/m*3 7.9 C 4.8 km/h
185 13-01-2020 15:20:00 8 C 7.28 g/m*3 8 C 1.6 km/h
186 13-01-2020 15:25:00 7.9 C 7.15 g/m*3 7.9 C 0 km/h
187 13-01-2020 15:30:00 8 C 7.19 g/m*3 8 C 1.6 km/h
188 13-01-2020 15:35:00 8 C 7.19 g/m*3 8 C 0 km/h
189 13-01-2020 15:40:00 8 C 7.19 g/m*3 8 C 0 km/h
190 13-01-2020 15:45:00 8 C 7.11 g/m*3 8 C 0 km/h
191 13-01-2020 15:50:00 8 C 7.11 g/m*3 8 C 0 km/h
192 13-01-2020 15:55:00 8 C 7.03 g/m*3 7.06 C 6.4 km/h
193 13-01-2020 16:00:00 8 C 7.03 g/m*3 8 C 1.6 km/h
194 13-01-2020 16:05:00 8 C 7.11 g/m*3 8 C 0 km/h
195 13-01-2020 16:10:00 7.9 C 7.06 g/m*3 7.9 C 0 km/h
196 13-01-2020 16:15:00 7.9 C 6.98 g/m*3 7.9 C 0 km/h
197 13-01-2020 16:20:00 7.9 C 7.06 g/m*3 7.9 C 0 km/h
198 13-01-2020 16:25:00 7.9 C 7.06 g/m*3 7.9 C 4.8 km/h
199 13-01-2020 16:30:00 7.8 C 7.02 g/m*3 7.8 C 4.8 km/h
200 13-01-2020 16:35:00 7.8 C 7.02 g/m*3 7.8 C 0 km/h
Sensor: Nr:Datum:Temp:Abs-Feuchte:Windchill:Wind:
Aussen-T/F 201 13-01-2020 16:40:00 7.8 C 7.1 g/m*3 7.8 C 0 km/h
202 13-01-2020 16:45:00 7.7 C 7.05 g/m*3 7.7 C 0 km/h
203 13-01-2020 16:50:00 7.6 C 7.01 g/m*3 7.6 C 3.2 km/h
204 13-01-2020 16:55:00 7.5 C 6.96 g/m*3 7.5 C 1.6 km/h
205 13-01-2020 17:00:00 7.4 C 6.92 g/m*3 7.4 C 0 km/h
206 13-01-2020 17:05:00 7.4 C 6.92 g/m*3 7.4 C 1.6 km/h
207 13-01-2020 17:10:00 7.4 C 6.92 g/m*3 7.4 C 1.6 km/h
208 13-01-2020 17:15:00 7.4 C 7 g/m*3 7.4 C 0 km/h
209 13-01-2020 17:20:00 7.3 C 6.87 g/m*3 7.3 C 0 km/h
210 13-01-2020 17:25:00 7.3 C 6.87 g/m*3 7.3 C 0 km/h
211 13-01-2020 17:30:00 7.2 C 6.83 g/m*3 7.2 C 0 km/h
212 13-01-2020 17:35:00 7.2 C 6.91 g/m*3 7.2 C 0 km/h
213 13-01-2020 17:40:00 7 C 6.74 g/m*3 7 C 0 km/h
214 13-01-2020 17:45:00 6.8 C 6.65 g/m*3 6.8 C 0 km/h
215 13-01-2020 17:50:00 6.7 C 6.69 g/m*3 6.7 C 0 km/h
216 13-01-2020 17:55:00 6.6 C 6.72 g/m*3 6.6 C 1.6 km/h
217 13-01-2020 18:00:00 6.5 C 6.67 g/m*3 6.5 C 0 km/h
218 13-01-2020 18:05:00 6.4 C 6.71 g/m*3 6.4 C 0 km/h
219 13-01-2020 18:10:00 6.3 C 6.66 g/m*3 6.3 C 0 km/h
220 13-01-2020 18:15:00 6.3 C 6.66 g/m*3 6.3 C 3.2 km/h
221 13-01-2020 18:20:00 6.3 C 6.66 g/m*3 6.3 C 3.2 km/h
222 13-01-2020 18:25:00 6.3 C 6.74 g/m*3 6.3 C 0 km/h
223 13-01-2020 18:30:00 6.4 C 6.78 g/m*3 6.4 C 3.2 km/h
224 13-01-2020 18:35:00 6.4 C 6.78 g/m*3 6.4 C 3.2 km/h
225 13-01-2020 18:40:00 6.4 C 6.71 g/m*3 6.4 C 0 km/h
Sensor: Nr:Datum:Temp:Abs-Feuchte:Windchill:Wind:
Aussen-T/F 226 13-01-2020 18:45:00 6.4 C 6.71 g/m*3 6.4 C 0 km/h
227 13-01-2020 18:50:00 6.3 C 6.66 g/m*3 6.3 C 0 km/h
228 13-01-2020 18:55:00 6.3 C 6.66 g/m*3 6.3 C 0 km/h
229 13-01-2020 19:00:00 6.3 C 6.66 g/m*3 6.3 C 0 km/h
230 13-01-2020 19:05:00 6.2 C 6.62 g/m*3 6.2 C 0 km/h
231 13-01-2020 19:10:00 6.3 C 6.74 g/m*3 6.3 C 0 km/h
232 13-01-2020 19:15:00 6.3 C 6.74 g/m*3 6.3 C 0 km/h
233 13-01-2020 19:20:00 6.4 C 6.78 g/m*3 6.4 C 0 km/h
234 13-01-2020 19:25:00 6.4 C 6.78 g/m*3 6.4 C 0 km/h
235 13-01-2020 19:30:00 6.6 C 6.87 g/m*3 5.44 C 6.4 km/h
236 13-01-2020 19:35:00 6.7 C 6.84 g/m*3 6.7 C 4.8 km/h
237 13-01-2020 19:40:00 6.8 C 6.88 g/m*3 6.8 C 1.6 km/h
238 13-01-2020 19:45:00 6.8 C 6.88 g/m*3 6.8 C 0 km/h
239 13-01-2020 19:50:00 6.8 C 6.88 g/m*3 6.8 C 0 km/h
240 13-01-2020 19:55:00 6.7 C 6.84 g/m*3 6.7 C 0 km/h
241 13-01-2020 20:00:00 6.6 C 6.79 g/m*3 6.6 C 0 km/h
242 13-01-2020 20:05:00 6.6 C 6.79 g/m*3 6.6 C 0 km/h
243 13-01-2020 20:10:00 6.5 C 6.82 g/m*3 6.5 C 0 km/h
244 13-01-2020 20:15:00 6.4 C 6.78 g/m*3 6.4 C 0 km/h
245 13-01-2020 20:20:00 6.4 C 6.78 g/m*3 6.4 C 0 km/h
246 13-01-2020 20:25:00 6.4 C 6.78 g/m*3 6.4 C 0 km/h
247 13-01-2020 20:30:00 6.3 C 6.74 g/m*3 6.3 C 0 km/h
248 13-01-2020 20:35:00 6.3 C 6.74 g/m*3 6.3 C 0 km/h
249 13-01-2020 20:40:00 6.3 C 6.81 g/m*3 6.3 C 0 km/h
250 13-01-2020 20:45:00 6.3 C 6.81 g/m*3 6.3 C 0 km/h
Sensor: Nr:Datum:Temp:Abs-Feuchte:Windchill:Wind:
Aussen-T/F 251 13-01-2020 20:50:00 6.3 C 6.81 g/m*3 6.3 C 0 km/h
252 13-01-2020 20:55:00 6.3 C 6.81 g/m*3 6.3 C 0 km/h
253 13-01-2020 21:00:00 6.3 C 6.81 g/m*3 6.3 C 0 km/h
254 13-01-2020 21:05:00 6.4 C 6.85 g/m*3 6.4 C 0 km/h
255 13-01-2020 21:10:00 6.4 C 6.85 g/m*3 6.4 C 0 km/h
256 13-01-2020 21:15:00 6.4 C 6.85 g/m*3 6.4 C 0 km/h
257 13-01-2020 21:20:00 6.4 C 6.85 g/m*3 6.4 C 0 km/h
258 13-01-2020 21:25:00 6.3 C 6.81 g/m*3 6.3 C 0 km/h
259 13-01-2020 21:30:00 6.2 C 6.77 g/m*3 6.2 C 0 km/h
260 13-01-2020 21:35:00 6.2 C 6.77 g/m*3 6.2 C 0 km/h
261 13-01-2020 21:40:00 6.3 C 6.81 g/m*3 6.3 C 0 km/h
262 13-01-2020 21:45:00 6.3 C 6.81 g/m*3 6.3 C 0 km/h
263 13-01-2020 21:50:00 6.2 C 6.77 g/m*3 6.2 C 0 km/h
264 13-01-2020 21:55:00 6.2 C 6.77 g/m*3 6.2 C 0 km/h
265 13-01-2020 22:00:00 6.2 C 6.84 g/m*3 6.2 C 0 km/h
266 13-01-2020 22:05:00 6.2 C 6.84 g/m*3 6.2 C 0 km/h
267 13-01-2020 22:10:00 6.2 C 6.84 g/m*3 6.2 C 0 km/h
268 13-01-2020 22:15:00 6.3 C 6.88 g/m*3 6.3 C 0 km/h
269 13-01-2020 22:20:00 6.3 C 6.88 g/m*3 6.3 C 0 km/h
270 13-01-2020 22:25:00 6.4 C 6.93 g/m*3 6.4 C 1.6 km/h
271 13-01-2020 22:30:00 6.4 C 6.93 g/m*3 6.4 C 3.2 km/h
272 13-01-2020 22:35:00 6.5 C 6.97 g/m*3 6.5 C 0 km/h
273 13-01-2020 22:40:00 6.6 C 7.02 g/m*3 6.6 C 0 km/h
274 13-01-2020 22:45:00 6.6 C 7.02 g/m*3 6.6 C 0 km/h
275 13-01-2020 22:50:00 6.7 C 7.07 g/m*3 6.7 C 3.2 km/h
Sensor: Nr:Datum:Temp:Abs-Feuchte:Windchill:Wind:
Aussen-T/F 276 13-01-2020 22:55:00 6.7 C 7.07 g/m*3 6.7 C 0 km/h
277 13-01-2020 23:00:00 6.8 C 7.11 g/m*3 6.8 C 0 km/h
278 13-01-2020 23:05:00 6.8 C 7.11 g/m*3 6.8 C 0 km/h
279 13-01-2020 23:10:00 6.8 C 7.04 g/m*3 6.8 C 0 km/h
280 13-01-2020 23:15:00 6.8 C 7.04 g/m*3 6.8 C 0 km/h
281 13-01-2020 23:20:00 6.8 C 7.11 g/m*3 6.8 C 0 km/h
282 13-01-2020 23:25:00 6.8 C 7.11 g/m*3 6.8 C 0 km/h
283 13-01-2020 23:30:00 6.8 C 7.11 g/m*3 5.22 C 8.1 km/h
284 13-01-2020 23:35:00 6.8 C 7.11 g/m*3 6.8 C 3.2 km/h
285 13-01-2020 23:40:00 6.9 C 7.16 g/m*3 6.9 C 0 km/h
286 13-01-2020 23:45:00 6.9 C 7.16 g/m*3 6.9 C 1.6 km/h
287 13-01-2020 23:50:00 6.9 C 7.16 g/m*3 6.9 C 0 km/h
288 13-01-2020 23:55:00 7 C 7.21 g/m*3 7 C 3.2 km/h
289 14-01-2020 00:00:00 7.1 C 7.25 g/m*3 7.1 C 0 km/h
290 14-01-2020 00:05:00 7.1 C 7.25 g/m*3 7.1 C 3.2 km/h
291 14-01-2020 00:10:00 7.1 C 7.25 g/m*3 7.1 C 1.6 km/h
292 14-01-2020 00:15:00 7.1 C 7.25 g/m*3 7.1 C 1.6 km/h
293 14-01-2020 00:20:00 7.1 C 7.25 g/m*3 7.1 C 1.6 km/h
294 14-01-2020 00:25:00 7.2 C 7.3 g/m*3 7.2 C 4.8 km/h
295 14-01-2020 00:30:00 7.2 C 7.3 g/m*3 7.2 C 0 km/h
296 14-01-2020 00:35:00 7.2 C 7.3 g/m*3 7.2 C 1.6 km/h
297 14-01-2020 00:40:00 7.2 C 7.3 g/m*3 7.2 C 0 km/h
298 14-01-2020 00:45:00 7.2 C 7.3 g/m*3 7.2 C 1.6 km/h
299 14-01-2020 00:50:00 7.2 C 7.3 g/m*3 7.2 C 0 km/h
300 14-01-2020 00:55:00 7.2 C 7.3 g/m*3 7.2 C 0 km/h
Sensor: Nr:Datum:Temp:Abs-Feuchte:Windchill:Wind:
Aussen-T/F 301 14-01-2020 01:00:00 7.1 C 7.25 g/m*3 7.1 C 0 km/h
302 14-01-2020 01:05:00 7.1 C 7.25 g/m*3 7.1 C 0 km/h
303 14-01-2020 01:10:00 7 C 7.13 g/m*3 7 C 0 km/h
304 14-01-2020 01:15:00 6.9 C 7.08 g/m*3 6.9 C 0 km/h
305 14-01-2020 01:20:00 6.8 C 7.04 g/m*3 6.8 C 0 km/h
306 14-01-2020 01:25:00 6.7 C 6.99 g/m*3 6.7 C 0 km/h
307 14-01-2020 01:30:00 6.7 C 6.99 g/m*3 6.7 C 0 km/h
308 14-01-2020 01:35:00 6.6 C 7.02 g/m*3 6.6 C 0 km/h
309 14-01-2020 01:40:00 6.5 C 6.97 g/m*3 6.5 C 4.8 km/h
310 14-01-2020 01:45:00 6.6 C 7.02 g/m*3 6.6 C 1.6 km/h
311 14-01-2020 01:50:00 6.6 C 7.02 g/m*3 6.6 C 0 km/h
312 14-01-2020 01:55:00 6.6 C 7.02 g/m*3 6.6 C 1.6 km/h
313 14-01-2020 02:00:00 6.7 C 7.07 g/m*3 6.7 C 1.6 km/h
314 14-01-2020 02:05:00 6.7 C 7.07 g/m*3 6.7 C 1.6 km/h
315 14-01-2020 02:10:00 6.8 C 7.11 g/m*3 6.8 C 1.6 km/h
316 14-01-2020 02:15:00 6.8 C 7.04 g/m*3 6.8 C 1.6 km/h
317 14-01-2020 02:20:00 6.9 C 7.08 g/m*3 6.9 C 1.6 km/h
318 14-01-2020 02:25:00 6.9 C 7.08 g/m*3 6.9 C 0 km/h
319 14-01-2020 02:30:00 7 C 7.05 g/m*3 7 C 1.6 km/h
320 14-01-2020 02:35:00 7.1 C 7.1 g/m*3 7.1 C 0 km/h
321 14-01-2020 02:40:00 7.1 C 7.1 g/m*3 7.1 C 4.8 km/h
322 14-01-2020 02:45:00 7.1 C 7.1 g/m*3 7.1 C 4.8 km/h
323 14-01-2020 02:50:00 7 C 7.05 g/m*3 7 C 3.2 km/h
324 14-01-2020 02:55:00 7 C 7.05 g/m*3 7 C 3.2 km/h
325 14-01-2020 03:00:00 7 C 7.05 g/m*3 7 C 1.6 km/h
Sensor: Nr:Datum:Temp:Abs-Feuchte:Windchill:Wind:
Aussen-T/F 326 14-01-2020 03:05:00 7.1 C 7.1 g/m*3 7.1 C 0 km/h
327 14-01-2020 03:10:00 7.1 C 7.02 g/m*3 7.1 C 1.6 km/h
328 14-01-2020 03:15:00 7.2 C 7.06 g/m*3 7.2 C 3.2 km/h
329 14-01-2020 03:20:00 7.3 C 7.11 g/m*3 7.3 C 1.6 km/h
330 14-01-2020 03:25:00 7.3 C 7.03 g/m*3 7.3 C 0 km/h
331 14-01-2020 03:30:00 7.2 C 6.99 g/m*3 7.2 C 0 km/h
332 14-01-2020 03:35:00 7.2 C 6.99 g/m*3 7.2 C 1.6 km/h
333 14-01-2020 03:40:00 7.3 C 7.03 g/m*3 7.3 C 3.2 km/h
334 14-01-2020 03:45:00 7.4 C 7 g/m*3 7.4 C 0 km/h
335 14-01-2020 03:50:00 7.4 C 7 g/m*3 7.4 C 0 km/h
336 14-01-2020 03:55:00 7.5 C 7.04 g/m*3 7.5 C 1.6 km/h
337 14-01-2020 04:00:00 7.5 C 7.04 g/m*3 7.5 C 1.6 km/h
338 14-01-2020 04:05:00 7.5 C 7.04 g/m*3 6.48 C 6.4 km/h
339 14-01-2020 04:10:00 7.6 C 7.09 g/m*3 7.6 C 0 km/h
340 14-01-2020 04:15:00 7.6 C 7.09 g/m*3 7.6 C 0 km/h
341 14-01-2020 04:20:00 7.5 C 7.04 g/m*3 7.5 C 3.2 km/h
342 14-01-2020 04:25:00 7.5 C 6.96 g/m*3 6.48 C 6.4 km/h
343 14-01-2020 04:30:00 7.4 C 6.92 g/m*3 7.4 C 0 km/h
344 14-01-2020 04:35:00 7.4 C 7 g/m*3 7.4 C 3.2 km/h
345 14-01-2020 04:40:00 7.5 C 7.04 g/m*3 7.5 C 1.6 km/h
346 14-01-2020 04:45:00 7.6 C 7.17 g/m*3 7.6 C 3.2 km/h
347 14-01-2020 04:50:00 7.6 C 7.17 g/m*3 7.6 C 1.6 km/h
348 14-01-2020 04:55:00 7.7 C 7.22 g/m*3 6.71 C 6.4 km/h
349 14-01-2020 05:00:00 7.8 C 7.18 g/m*3 7.8 C 3.2 km/h
350 14-01-2020 05:05:00 7.9 C 7.15 g/m*3 6.52 C 8.1 km/h
Sensor: Nr:Datum:Temp:Abs-Feuchte:Windchill:Wind:
Aussen-T/F 351 14-01-2020 05:10:00 8 C 7.11 g/m*3 6.01 C 11.3 km/h
352 14-01-2020 05:15:00 8.2 C 7.2 g/m*3 8.2 C 4.8 km/h
353 14-01-2020 05:20:00 8.2 C 7.2 g/m*3 7.29 C 6.4 km/h
354 14-01-2020 05:25:00 8.3 C 7.16 g/m*3 7.41 C 6.4 km/h
355 14-01-2020 05:30:00 8.3 C 7.16 g/m*3 8.3 C 3.2 km/h
356 14-01-2020 05:35:00 8.3 C 7.16 g/m*3 8.3 C 4.8 km/h
357 14-01-2020 05:40:00 8.3 C 7.08 g/m*3 8.3 C 4.8 km/h
358 14-01-2020 05:45:00 8.3 C 7 g/m*3 8.3 C 4.8 km/h
359 14-01-2020 05:50:00 8.3 C 7 g/m*3 8.3 C 1.6 km/h
360 14-01-2020 05:55:00 8.3 C 7 g/m*3 8.3 C 4.8 km/h
361 14-01-2020 06:00:00 8.3 C 7 g/m*3 8.3 C 4.8 km/h
362 14-01-2020 06:05:00 8.3 C 7 g/m*3 8.3 C 0 km/h
363 14-01-2020 06:10:00 8.3 C 7.08 g/m*3 8.3 C 1.6 km/h
364 14-01-2020 06:15:00 8.4 C 7.04 g/m*3 6.78 C 9.7 km/h
365 14-01-2020 06:20:00 8.4 C 7.04 g/m*3 8.4 C 0 km/h
366 14-01-2020 06:25:00 8.3 C 7 g/m*3 8.3 C 3.2 km/h
367 14-01-2020 06:30:00 8.2 C 6.95 g/m*3 8.2 C 4.8 km/h
368 14-01-2020 06:35:00 8.1 C 6.99 g/m*3 6.75 C 8.1 km/h
369 14-01-2020 06:40:00 8 C 6.94 g/m*3 8 C 3.2 km/h
370 14-01-2020 06:45:00 7.9 C 6.9 g/m*3 7.9 C 4.8 km/h
371 14-01-2020 06:50:00 7.9 C 6.9 g/m*3 7.9 C 4.8 km/h
372 14-01-2020 06:55:00 8 C 6.86 g/m*3 6.64 C 8.1 km/h
373 14-01-2020 07:00:00 8.1 C 6.91 g/m*3 7.17 C 6.4 km/h
374 14-01-2020 07:05:00 8.2 C 6.95 g/m*3 8.2 C 3.2 km/h
375 14-01-2020 07:10:00 8.2 C 6.95 g/m*3 8.2 C 3.2 km/h
Sensor: Nr:Datum:Temp:Abs-Feuchte:Windchill:Wind:
Aussen-T/F 376 14-01-2020 07:15:00 8.1 C 6.91 g/m*3 8.1 C 1.6 km/h
377 14-01-2020 07:20:00 8 C 6.86 g/m*3 8 C 1.6 km/h
378 14-01-2020 07:25:00 7.8 C 6.77 g/m*3 7.8 C 3.2 km/h
379 14-01-2020 07:30:00 7.8 C 6.86 g/m*3 7.8 C 1.6 km/h
380 14-01-2020 07:35:00 7.8 C 6.77 g/m*3 6.4 C 8.1 km/h
381 14-01-2020 07:40:00 7.9 C 6.82 g/m*3 6.94 C 6.4 km/h
382 14-01-2020 07:45:00 8.1 C 6.82 g/m*3 6.75 C 8.1 km/h
383 14-01-2020 07:50:00 8.1 C 6.82 g/m*3 7.17 C 6.4 km/h
384 14-01-2020 07:55:00 8.1 C 6.74 g/m*3 7.17 C 6.4 km/h
385 14-01-2020 08:00:00 8.2 C 6.78 g/m*3 6.87 C 8.1 km/h
386 14-01-2020 08:05:00 8.2 C 6.78 g/m*3 6.87 C 8.1 km/h
387 14-01-2020 08:10:00 8.3 C 6.83 g/m*3 5.89 C 14.5 km/h
388 14-01-2020 08:15:00 8.4 C 6.79 g/m*3 6.49 C 11.3 km/h
389 14-01-2020 08:20:00 8.4 C 6.79 g/m*3 6.78 C 9.7 km/h
390 14-01-2020 08:25:00 8.5 C 6.83 g/m*3 6.61 C 11.3 km/h
391 14-01-2020 08:30:00 8.6 C 6.87 g/m*3 7.34 C 8.1 km/h
392 14-01-2020 08:35:00 8.6 C 6.87 g/m*3 7.75 C 6.4 km/h
393 14-01-2020 08:40:00 8.6 C 6.87 g/m*3 6.48 C 12.9 km/h
394 14-01-2020 08:45:00 8.6 C 6.87 g/m*3 7.34 C 8.1 km/h
395 14-01-2020 08:50:00 8.6 C 6.87 g/m*3 7.01 C 9.7 km/h
396 14-01-2020 08:55:00 8.6 C 6.96 g/m*3 6.73 C 11.3 km/h
397 14-01-2020 09:00:00 8.6 C 6.96 g/m*3 6.25 C 14.5 km/h
398 14-01-2020 09:05:00 8.7 C 6.92 g/m*3 7.13 C 9.7 km/h
399 14-01-2020 09:10:00 8.7 C 6.92 g/m*3 6.85 C 11.3 km/h
400 14-01-2020 09:15:00 8.8 C 6.96 g/m*3 7.25 C 9.7 km/h
Sensor: Nr:Datum:Temp:Abs-Feuchte:Windchill:Wind:
Aussen-T/F 401 14-01-2020 09:20:00 8.8 C 6.96 g/m*3 7.25 C 9.7 km/h
402 14-01-2020 09:25:00 8.9 C 7.1 g/m*3 6.85 C 12.9 km/h
403 14-01-2020 09:30:00 8.9 C 7.1 g/m*3 8.1 C 6.4 km/h
404 14-01-2020 09:35:00 8.9 C 7.1 g/m*3 7.37 C 9.7 km/h
405 14-01-2020 09:40:00 8.9 C 7.1 g/m*3 7.69 C 8.1 km/h
406 14-01-2020 09:45:00 9.1 C 7.1 g/m*3 7.61 C 9.7 km/h
407 14-01-2020 09:50:00 9.2 C 7.23 g/m*3 7.21 C 12.9 km/h
408 14-01-2020 09:55:00 9.2 C 7.14 g/m*3 7.46 C 11.3 km/h
409 14-01-2020 10:00:00 9.3 C 7.19 g/m*3 6.12 C 24.1 km/h
410 14-01-2020 10:05:00 9.5 C 7.28 g/m*3 7.16 C 16.1 km/h
411 14-01-2020 10:10:00 9.6 C 7.33 g/m*3 8.91 C 6.4 km/h
412 14-01-2020 10:15:00 9.7 C 7.28 g/m*3 7.82 C 12.9 km/h
413 14-01-2020 10:20:00 9.6 C 7.24 g/m*3 7.94 C 11.3 km/h
414 14-01-2020 10:25:00 9.6 C 7.24 g/m*3 7.7 C 12.9 km/h
415 14-01-2020 10:30:00 9.5 C 7.19 g/m*3 8.4 C 8.1 km/h
416 14-01-2020 10:35:00 9.4 C 7.15 g/m*3 7.97 C 9.7 km/h
417 14-01-2020 10:40:00 9.4 C 7.15 g/m*3 8.28 C 8.1 km/h
418 14-01-2020 10:45:00 9.4 C 7.15 g/m*3 8.68 C 6.4 km/h
419 14-01-2020 10:50:00 9.4 C 7.15 g/m*3 8.28 C 8.1 km/h
420 14-01-2020 10:55:00 9.4 C 7.15 g/m*3 9.4 C 1.6 km/h
421 14-01-2020 11:00:00 9.5 C 7.19 g/m*3 8.79 C 6.4 km/h
422 14-01-2020 11:05:00 9.6 C 7.15 g/m*3 8.91 C 6.4 km/h
423 14-01-2020 11:10:00 9.7 C 7.19 g/m*3 8.63 C 8.1 km/h
424 14-01-2020 11:15:00 9.7 C 7.1 g/m*3 8.06 C 11.3 km/h
425 14-01-2020 11:20:00 9.8 C 7.14 g/m*3 9.14 C 6.4 km/h
Sensor: Nr:Datum:Temp:Abs-Feuchte:Windchill:Wind:
Aussen-T/F 426 14-01-2020 11:25:00 9.8 C 7.05 g/m*3 8.18 C 11.3 km/h
427 14-01-2020 11:30:00 9.9 C 7.1 g/m*3 8.87 C 8.1 km/h
428 14-01-2020 11:35:00 9.9 C 7.1 g/m*3 9.9 C 4.8 km/h
429 14-01-2020 11:40:00 10 C 7.05 g/m*3 9.37 C 6.4 km/h
430 14-01-2020 11:45:00 10 C 7.05 g/m*3 9.37 C 6.4 km/h
431 14-01-2020 11:50:00 10.1 C 7.09 g/m*3 10.1 C 4.8 km/h
432 14-01-2020 11:55:00 10.1 C 7 g/m*3 10.1 C 3.2 km/h
433 14-01-2020 12:00:00 10.1 C 7 g/m*3 9.1 C 8.1 km/h
434 14-01-2020 12:05:00 10.1 C 7 g/m*3 8.54 C 11.3 km/h
435 14-01-2020 12:10:00 10.1 C 7 g/m*3 9.48 C 6.4 km/h
436 14-01-2020 12:15:00 10.1 C 7 g/m*3 9.48 C 6.4 km/h
437 14-01-2020 12:20:00 10.1 C 6.9 g/m*3 10.1 C 3.2 km/h
438 14-01-2020 12:25:00 10.2 C 6.95 g/m*3 8.92 C 9.7 km/h
439 14-01-2020 12:30:00 10.2 C 6.95 g/m*3 9.6 C 6.4 km/h
440 14-01-2020 12:35:00 10.3 C 6.99 g/m*3 8.78 C 11.3 km/h
441 14-01-2020 12:40:00 10.3 C 7.09 g/m*3 10.3 C 4.8 km/h
442 14-01-2020 12:45:00 10.3 C 6.9 g/m*3 10.3 C 4.8 km/h
443 14-01-2020 12:50:00 10.3 C 6.99 g/m*3 9.34 C 8.1 km/h
444 14-01-2020 12:55:00 10.4 C 7.04 g/m*3 10.4 C 4.8 km/h
445 14-01-2020 13:00:00 10.4 C 7.04 g/m*3 10.4 C 0 km/h
446 14-01-2020 13:05:00 10.5 C 7.08 g/m*3 10.5 C 1.6 km/h
447 14-01-2020 13:10:00 10.5 C 7.27 g/m*3 10.5 C 0 km/h
448 14-01-2020 13:15:00 10.6 C 7.42 g/m*3 10.6 C 0 km/h
449 14-01-2020 13:20:00 10.5 C 7.18 g/m*3 10.5 C 3.2 km/h
450 14-01-2020 13:25:00 10.6 C 7.03 g/m*3 10.6 C 3.2 km/h
Sensor: Nr:Datum:Temp:Abs-Feuchte:Windchill:Wind:
Aussen-T/F 451 14-01-2020 13:30:00 10.7 C 7.37 g/m*3 10.7 C 0 km/h
452 14-01-2020 13:35:00 10.7 C 7.27 g/m*3 10.7 C 0 km/h
453 14-01-2020 13:40:00 10.8 C 7.31 g/m*3 10.8 C 0 km/h
454 14-01-2020 13:45:00 10.8 C 7.02 g/m*3 8.3 C 20.9 km/h
455 14-01-2020 13:50:00 11.1 C 7.25 g/m*3 11.1 C 4.8 km/h
456 14-01-2020 13:55:00 11.2 C 7.3 g/m*3 11.2 C 12.9 km/h
457 14-01-2020 14:00:00 11.4 C 7.08 g/m*3 11.4 C 9.7 km/h
458 14-01-2020 14:05:00 11.7 C 7.22 g/m*3 11.7 C 8.1 km/h
459 14-01-2020 14:10:00 11.8 C 7.26 g/m*3 11.8 C 8.1 km/h
460 14-01-2020 14:15:00 11.9 C 7.2 g/m*3 11.9 C 11.3 km/h
461 14-01-2020 14:20:00 12 C 7.03 g/m*3 12 C 12.9 km/h
462 14-01-2020 14:25:00 12.1 C 7.18 g/m*3 12.1 C 9.7 km/h
463 14-01-2020 14:30:00 12.1 C 7.08 g/m*3 12.1 C 16.1 km/h
464 14-01-2020 14:35:00 12.1 C 7.08 g/m*3 12.1 C 6.4 km/h
465 14-01-2020 14:40:00 12.1 C 7.29 g/m*3 12.1 C 9.7 km/h
466 14-01-2020 14:45:00 12.1 C 7.29 g/m*3 12.1 C 0 km/h
467 14-01-2020 14:50:00 12.1 C 7.18 g/m*3 12.1 C 0 km/h
468 14-01-2020 14:55:00 12.1 C 7.18 g/m*3 12.1 C 6.4 km/h
469 14-01-2020 15:00:00 12.2 C 7.12 g/m*3 12.2 C 12.9 km/h
470 14-01-2020 15:05:00 12.2 C 7.12 g/m*3 12.2 C 19.3 km/h
471 14-01-2020 15:10:00 12.2 C 7.12 g/m*3 12.2 C 17.7 km/h
472 14-01-2020 15:15:00 12.2 C 7.12 g/m*3 12.2 C 4.8 km/h
473 14-01-2020 15:20:00 12.2 C 7.01 g/m*3 12.2 C 14.5 km/h
474 14-01-2020 15:25:00 12.2 C 7.01 g/m*3 12.2 C 9.7 km/h
475 14-01-2020 15:30:00 12.2 C 6.91 g/m*3 12.2 C 6.4 km/h
Sensor: Nr:Datum:Temp:Abs-Feuchte:Windchill:Wind:
Aussen-T/F 476 14-01-2020 15:35:00 12.2 C 7.12 g/m*3 12.2 C 4.8 km/h
477 14-01-2020 15:40:00 12.1 C 7.08 g/m*3 12.1 C 3.2 km/h
478 14-01-2020 15:45:00 12 C 7.14 g/m*3 12 C 4.8 km/h
479 14-01-2020 15:50:00 11.9 C 6.99 g/m*3 11.9 C 1.6 km/h
480 14-01-2020 15:55:00 11.8 C 7.16 g/m*3 11.8 C 0 km/h
481 14-01-2020 16:00:00 11.8 C 6.95 g/m*3 11.8 C 8.1 km/h
482 14-01-2020 16:05:00 11.7 C 7.11 g/m*3 11.7 C 3.2 km/h
483 14-01-2020 16:10:00 11.5 C 7.02 g/m*3 11.5 C 8.1 km/h
484 14-01-2020 16:15:00 11.4 C 7.08 g/m*3 11.4 C 8.1 km/h
485 14-01-2020 16:20:00 11.4 C 6.88 g/m*3 11.4 C 4.8 km/h
486 14-01-2020 16:25:00 11.4 C 6.88 g/m*3 11.4 C 0 km/h
487 14-01-2020 16:30:00 11.3 C 6.73 g/m*3 11.3 C 3.2 km/h
488 14-01-2020 16:35:00 11.3 C 6.73 g/m*3 11.3 C 4.8 km/h
489 14-01-2020 16:40:00 11.3 C 6.73 g/m*3 11.3 C 11.3 km/h
490 14-01-2020 16:45:00 11.3 C 6.73 g/m*3 11.3 C 12.9 km/h
491 14-01-2020 16:50:00 11.4 C 6.77 g/m*3 11.4 C 8.1 km/h
492 14-01-2020 16:55:00 11.3 C 6.63 g/m*3 11.3 C 6.4 km/h
493 14-01-2020 17:00:00 11.3 C 6.83 g/m*3 11.3 C 6.4 km/h
494 14-01-2020 17:05:00 11.3 C 6.73 g/m*3 11.3 C 12.9 km/h
495 14-01-2020 17:10:00 11.3 C 6.73 g/m*3 11.3 C 8.1 km/h
496 14-01-2020 17:15:00 11.2 C 6.79 g/m*3 11.2 C 11.3 km/h
497 14-01-2020 17:20:00 11.2 C 6.79 g/m*3 11.2 C 6.4 km/h
498 14-01-2020 17:25:00 11.2 C 6.79 g/m*3 11.2 C 14.5 km/h
499 14-01-2020 17:30:00 11.2 C 6.89 g/m*3 11.2 C 4.8 km/h
500 14-01-2020 17:35:00 11.1 C 6.85 g/m*3 11.1 C 11.3 km/h
Sensor: Nr:Datum:Temp:Abs-Feuchte:Windchill:Wind:
Aussen-T/F 501 14-01-2020 17:40:00 11.2 C 6.89 g/m*3 11.2 C 12.9 km/h
502 14-01-2020 17:45:00 11.2 C 6.89 g/m*3 11.2 C 11.3 km/h
503 14-01-2020 17:50:00 11.3 C 6.94 g/m*3 11.3 C 11.3 km/h
504 14-01-2020 17:55:00 11.3 C 6.94 g/m*3 11.3 C 9.7 km/h
505 14-01-2020 18:00:00 11.3 C 7.04 g/m*3 11.3 C 6.4 km/h
506 14-01-2020 18:05:00 11.3 C 7.04 g/m*3 11.3 C 8.1 km/h
507 14-01-2020 18:10:00 11.3 C 7.14 g/m*3 11.3 C 6.4 km/h
508 14-01-2020 18:15:00 11.3 C 7.14 g/m*3 11.3 C 11.3 km/h
509 14-01-2020 18:20:00 11.3 C 7.14 g/m*3 11.3 C 8.1 km/h
510 14-01-2020 18:25:00 11.3 C 7.14 g/m*3 11.3 C 6.4 km/h
511 14-01-2020 18:30:00 11.3 C 7.14 g/m*3 11.3 C 6.4 km/h
512 14-01-2020 18:35:00 11.3 C 7.24 g/m*3 11.3 C 6.4 km/h
513 14-01-2020 18:40:00 11.3 C 7.34 g/m*3 11.3 C 14.5 km/h
514 14-01-2020 18:45:00 11.3 C 7.34 g/m*3 11.3 C 12.9 km/h
515 14-01-2020 18:50:00 11.4 C 7.49 g/m*3 11.4 C 14.5 km/h
516 14-01-2020 18:55:00 11.4 C 7.6 g/m*3 11.4 C 9.7 km/h
517 14-01-2020 19:00:00 11.5 C 7.64 g/m*3 11.5 C 16.1 km/h
518 14-01-2020 19:05:00 11.6 C 7.8 g/m*3 11.6 C 19.3 km/h
519 14-01-2020 19:10:00 11.6 C 7.8 g/m*3 11.6 C 12.9 km/h
520 14-01-2020 19:15:00 11.6 C 7.8 g/m*3 11.6 C 12.9 km/h
521 14-01-2020 19:20:00 11.5 C 7.75 g/m*3 11.5 C 16.1 km/h
522 14-01-2020 19:25:00 11.5 C 7.85 g/m*3 11.5 C 12.9 km/h
523 14-01-2020 19:30:00 11.4 C 7.8 g/m*3 11.4 C 4.8 km/h
524 14-01-2020 19:35:00 11.4 C 7.7 g/m*3 11.4 C 14.5 km/h
525 14-01-2020 19:40:00 11.4 C 7.8 g/m*3 11.4 C 9.7 km/h
Sensor: Nr:Datum:Temp:Abs-Feuchte:Windchill:Wind:
Aussen-T/F 526 14-01-2020 19:45:00 11.4 C 7.7 g/m*3 11.4 C 9.7 km/h
527 14-01-2020 19:50:00 11.4 C 7.7 g/m*3 11.4 C 16.1 km/h
528 14-01-2020 19:55:00 11.3 C 7.75 g/m*3 11.3 C 11.3 km/h
529 14-01-2020 20:00:00 11.3 C 7.75 g/m*3 11.3 C 11.3 km/h
530 14-01-2020 20:05:00 11.3 C 7.75 g/m*3 11.3 C 8.1 km/h
531 14-01-2020 20:10:00 11.2 C 7.7 g/m*3 11.2 C 11.3 km/h
532 14-01-2020 20:15:00 11.2 C 7.6 g/m*3 11.2 C 17.7 km/h
533 14-01-2020 20:20:00 11.3 C 7.65 g/m*3 11.3 C 9.7 km/h
534 14-01-2020 20:25:00 11.3 C 7.65 g/m*3 11.3 C 14.5 km/h
535 14-01-2020 20:30:00 11.4 C 7.6 g/m*3 11.4 C 19.3 km/h
536 14-01-2020 20:35:00 11.6 C 7.59 g/m*3 11.6 C 14.5 km/h
537 14-01-2020 20:40:00 11.7 C 7.53 g/m*3 11.7 C 17.7 km/h
538 14-01-2020 20:45:00 11.8 C 7.58 g/m*3 11.8 C 11.3 km/h
539 14-01-2020 20:50:00 11.8 C 7.47 g/m*3 11.8 C 14.5 km/h
540 14-01-2020 20:55:00 11.8 C 7.47 g/m*3 11.8 C 17.7 km/h
541 14-01-2020 21:00:00 11.8 C 7.37 g/m*3 11.8 C 17.7 km/h
542 14-01-2020 21:05:00 11.8 C 7.37 g/m*3 11.8 C 12.9 km/h
543 14-01-2020 21:10:00 11.8 C 7.47 g/m*3 11.8 C 19.3 km/h
544 14-01-2020 21:15:00 11.8 C 7.37 g/m*3 11.8 C 11.3 km/h
545 14-01-2020 21:20:00 11.8 C 7.37 g/m*3 11.8 C 9.7 km/h
546 14-01-2020 21:25:00 11.9 C 7.41 g/m*3 11.9 C 14.5 km/h
547 14-01-2020 21:30:00 11.9 C 7.41 g/m*3 11.9 C 14.5 km/h
548 14-01-2020 21:35:00 12.1 C 7.4 g/m*3 12.1 C 16.1 km/h
549 14-01-2020 21:40:00 12.2 C 7.34 g/m*3 12.2 C 22.5 km/h
550 14-01-2020 21:45:00 12.2 C 7.45 g/m*3 12.2 C 9.7 km/h
Sensor: Nr:Datum:Temp:Abs-Feuchte:Windchill:Wind:
Aussen-T/F 551 14-01-2020 21:50:00 12.1 C 7.4 g/m*3 12.1 C 12.9 km/h
552 14-01-2020 21:55:00 12.1 C 7.4 g/m*3 12.1 C 3.2 km/h
553 14-01-2020 22:00:00 11.9 C 7.41 g/m*3 11.9 C 3.2 km/h
554 14-01-2020 22:05:00 11.8 C 7.37 g/m*3 11.8 C 6.4 km/h
555 14-01-2020 22:10:00 11.9 C 7.41 g/m*3 11.9 C 12.9 km/h
556 14-01-2020 22:15:00 12 C 7.57 g/m*3 12 C 3.2 km/h
557 14-01-2020 22:20:00 12 C 7.57 g/m*3 12 C 4.8 km/h
558 14-01-2020 22:25:00 12 C 7.46 g/m*3 12 C 8.1 km/h
559 14-01-2020 22:30:00 12.1 C 7.51 g/m*3 12.1 C 3.2 km/h
560 14-01-2020 22:35:00 12.1 C 7.61 g/m*3 12.1 C 14.5 km/h
561 14-01-2020 22:40:00 12.1 C 7.61 g/m*3 12.1 C 12.9 km/h
562 14-01-2020 22:45:00 11.9 C 7.52 g/m*3 11.9 C 3.2 km/h
563 14-01-2020 22:50:00 11.9 C 7.52 g/m*3 11.9 C 4.8 km/h
564 14-01-2020 22:55:00 11.9 C 7.63 g/m*3 11.9 C 6.4 km/h
565 14-01-2020 23:00:00 11.9 C 7.73 g/m*3 11.9 C 12.9 km/h
566 14-01-2020 23:05:00 12 C 7.67 g/m*3 12 C 9.7 km/h
567 14-01-2020 23:10:00 12.1 C 7.83 g/m*3 12.1 C 9.7 km/h
568 14-01-2020 23:15:00 12 C 7.67 g/m*3 12 C 3.2 km/h
569 14-01-2020 23:20:00 11.9 C 7.73 g/m*3 11.9 C 9.7 km/h
570 14-01-2020 23:25:00 11.9 C 7.84 g/m*3 11.9 C 11.3 km/h
571 14-01-2020 23:30:00 12.1 C 7.83 g/m*3 12.1 C 9.7 km/h
572 14-01-2020 23:35:00 12.1 C 7.83 g/m*3 12.1 C 6.4 km/h
573 14-01-2020 23:40:00 12.1 C 7.83 g/m*3 12.1 C 6.4 km/h
574 14-01-2020 23:45:00 12 C 7.67 g/m*3 12 C 8.1 km/h
575 14-01-2020 23:50:00 12 C 7.67 g/m*3 12 C 11.3 km/h
Sensor: Nr:Datum:Temp:Abs-Feuchte:Windchill:Wind:
Aussen-T/F 576 14-01-2020 23:55:00 11.9 C 7.63 g/m*3 11.9 C 8.1 km/h
577 15-01-2020 00:00:00 12 C 7.57 g/m*3 12 C 8.1 km/h
578 15-01-2020 00:05:00 12.1 C 7.72 g/m*3 12.1 C 6.4 km/h
579 15-01-2020 00:10:00 11.9 C 7.63 g/m*3 11.9 C 8.1 km/h
580 15-01-2020 00:15:00 11.8 C 7.58 g/m*3 11.8 C 4.8 km/h
581 15-01-2020 00:20:00 11.8 C 7.47 g/m*3 11.8 C 8.1 km/h
582 15-01-2020 00:25:00 11.9 C 7.52 g/m*3 11.9 C 9.7 km/h
583 15-01-2020 00:30:00 11.8 C 7.47 g/m*3 11.8 C 3.2 km/h
584 15-01-2020 00:35:00 11.9 C 7.52 g/m*3 11.9 C 11.3 km/h
585 15-01-2020 00:40:00 11.9 C 7.52 g/m*3 11.9 C 0 km/h
586 15-01-2020 00:45:00 11.8 C 7.37 g/m*3 11.8 C 9.7 km/h
587 15-01-2020 00:50:00 11.8 C 7.37 g/m*3 11.8 C 14.5 km/h
588 15-01-2020 00:55:00 11.8 C 7.37 g/m*3 11.8 C 14.5 km/h
589 15-01-2020 01:00:00 11.8 C 7.47 g/m*3 11.8 C 9.7 km/h
590 15-01-2020 01:05:00 11.8 C 7.47 g/m*3 11.8 C 6.4 km/h
591 15-01-2020 01:10:00 11.8 C 7.47 g/m*3 11.8 C 4.8 km/h
592 15-01-2020 01:15:00 11.7 C 7.43 g/m*3 11.7 C 4.8 km/h
593 15-01-2020 01:20:00 11.7 C 7.53 g/m*3 11.7 C 12.9 km/h
594 15-01-2020 01:25:00 11.6 C 7.48 g/m*3 11.6 C 6.4 km/h
595 15-01-2020 01:30:00 11.5 C 7.44 g/m*3 11.5 C 6.4 km/h
596 15-01-2020 01:35:00 11.4 C 7.39 g/m*3 11.4 C 8.1 km/h
597 15-01-2020 01:40:00 11.3 C 7.45 g/m*3 11.3 C 3.2 km/h
598 15-01-2020 01:45:00 11.3 C 7.45 g/m*3 11.3 C 4.8 km/h
599 15-01-2020 01:50:00 11.3 C 7.45 g/m*3 11.3 C 8.1 km/h
600 15-01-2020 01:55:00 11.3 C 7.45 g/m*3 11.3 C 4.8 km/h
Sensor: Nr:Datum:Temp:Abs-Feuchte:Windchill:Wind:
Aussen-T/F 601 15-01-2020 02:00:00 11.3 C 7.55 g/m*3 11.3 C 6.4 km/h
602 15-01-2020 02:05:00 11.2 C 7.5 g/m*3 11.2 C 8.1 km/h
603 15-01-2020 02:10:00 11.1 C 7.55 g/m*3 11.1 C 8.1 km/h
604 15-01-2020 02:15:00 11 C 7.61 g/m*3 11 C 4.8 km/h
605 15-01-2020 02:20:00 10.9 C 7.56 g/m*3 10.41 C 6.4 km/h
606 15-01-2020 02:25:00 10.9 C 7.66 g/m*3 10.41 C 6.4 km/h
607 15-01-2020 02:30:00 10.8 C 7.61 g/m*3 10.8 C 3.2 km/h
608 15-01-2020 02:35:00 10.8 C 7.71 g/m*3 10.29 C 6.4 km/h
609 15-01-2020 02:40:00 10.8 C 7.71 g/m*3 10.8 C 1.6 km/h
610 15-01-2020 02:45:00 10.8 C 7.71 g/m*3 9.93 C 8.1 km/h
611 15-01-2020 02:50:00 10.9 C 7.76 g/m*3 10.9 C 3.2 km/h
612 15-01-2020 02:55:00 10.9 C 7.86 g/m*3 10.9 C 1.6 km/h
613 15-01-2020 03:00:00 10.8 C 7.81 g/m*3 10.8 C 3.2 km/h
614 15-01-2020 03:05:00 10.6 C 7.81 g/m*3 10.6 C 1.6 km/h
615 15-01-2020 03:10:00 10.5 C 7.76 g/m*3 9.57 C 8.1 km/h
616 15-01-2020 03:15:00 10.4 C 7.81 g/m*3 10.4 C 4.8 km/h
617 15-01-2020 03:20:00 10.6 C 7.91 g/m*3 10.6 C 4.8 km/h
618 15-01-2020 03:25:00 10.7 C 7.86 g/m*3 10.7 C 3.2 km/h
619 15-01-2020 03:30:00 10.6 C 7.81 g/m*3 10.6 C 1.6 km/h
620 15-01-2020 03:35:00 10.6 C 7.91 g/m*3 10.6 C 4.8 km/h
621 15-01-2020 03:40:00 10.4 C 7.81 g/m*3 10.4 C 0 km/h
622 15-01-2020 03:45:00 10.3 C 7.85 g/m*3 10.3 C 0 km/h
623 15-01-2020 03:50:00 10.2 C 7.8 g/m*3 10.2 C 0 km/h
624 15-01-2020 03:55:00 10.1 C 7.85 g/m*3 10.1 C 0 km/h
625 15-01-2020 04:00:00 9.9 C 7.75 g/m*3 9.9 C 0 km/h
Sensor: Nr:Datum:Temp:Abs-Feuchte:Windchill:Wind:
Aussen-T/F 626 15-01-2020 04:05:00 9.9 C 7.84 g/m*3 9.9 C 3.2 km/h
627 15-01-2020 04:10:00 9.8 C 7.79 g/m*3 9.8 C 0 km/h
628 15-01-2020 04:15:00 9.8 C 7.79 g/m*3 9.8 C 0 km/h
629 15-01-2020 04:20:00 9.8 C 7.79 g/m*3 9.8 C 1.6 km/h
630 15-01-2020 04:25:00 9.7 C 7.74 g/m*3 9.7 C 1.6 km/h
631 15-01-2020 04:30:00 9.7 C 7.84 g/m*3 9.7 C 1.6 km/h
632 15-01-2020 04:35:00 9.6 C 7.79 g/m*3 9.6 C 3.2 km/h
633 15-01-2020 04:40:00 9.6 C 7.79 g/m*3 9.6 C 3.2 km/h
634 15-01-2020 04:45:00 9.5 C 7.65 g/m*3 9.5 C 0 km/h
635 15-01-2020 04:50:00 9.5 C 7.65 g/m*3 9.5 C 0 km/h
636 15-01-2020 04:55:00 9.4 C 7.51 g/m*3 9.4 C 0 km/h
637 15-01-2020 05:00:00 9.4 C 7.6 g/m*3 9.4 C 4.8 km/h
638 15-01-2020 05:05:00 9.3 C 7.55 g/m*3 9.3 C 0 km/h
639 15-01-2020 05:10:00 9.3 C 7.55 g/m*3 9.3 C 0 km/h
640 15-01-2020 05:15:00 9.3 C 7.55 g/m*3 9.3 C 1.6 km/h
641 15-01-2020 05:20:00 9.4 C 7.6 g/m*3 9.4 C 3.2 km/h
642 15-01-2020 05:25:00 9.6 C 7.6 g/m*3 8.52 C 8.1 km/h
643 15-01-2020 05:30:00 9.8 C 7.61 g/m*3 9.8 C 4.8 km/h
644 15-01-2020 05:35:00 9.9 C 7.66 g/m*3 9.9 C 4.8 km/h
645 15-01-2020 05:40:00 10 C 7.61 g/m*3 10 C 4.8 km/h
646 15-01-2020 05:45:00 10 C 7.52 g/m*3 8.68 C 9.7 km/h
647 15-01-2020 05:50:00 10.1 C 7.56 g/m*3 9.48 C 6.4 km/h
648 15-01-2020 05:55:00 10.2 C 7.52 g/m*3 10.2 C 3.2 km/h
649 15-01-2020 06:00:00 10.3 C 7.57 g/m*3 10.3 C 1.6 km/h
650 15-01-2020 06:05:00 10.3 C 7.57 g/m*3 9.72 C 6.4 km/h
Sensor: Nr:Datum:Temp:Abs-Feuchte:Windchill:Wind:
Aussen-T/F 651 15-01-2020 06:10:00 10.3 C 7.57 g/m*3 10.3 C 3.2 km/h
652 15-01-2020 06:15:00 10.3 C 7.47 g/m*3 10.3 C 3.2 km/h
653 15-01-2020 06:20:00 10.3 C 7.47 g/m*3 9.72 C 6.4 km/h
654 15-01-2020 06:25:00 10.3 C 7.28 g/m*3 9.04 C 9.7 km/h
655 15-01-2020 06:30:00 10.4 C 7.32 g/m*3 9.16 C 9.7 km/h
656 15-01-2020 06:35:00 10.5 C 7.27 g/m*3 9.28 C 9.7 km/h
657 15-01-2020 06:40:00 10.3 C 7.18 g/m*3 9.72 C 6.4 km/h
658 15-01-2020 06:45:00 10.2 C 7.23 g/m*3 10.2 C 0 km/h
659 15-01-2020 06:50:00 9.9 C 7.1 g/m*3 9.9 C 0 km/h
660 15-01-2020 06:55:00 9.6 C 7.15 g/m*3 9.6 C 4.8 km/h
661 15-01-2020 07:00:00 9.3 C 7.01 g/m*3 9.3 C 0 km/h
662 15-01-2020 07:05:00 9.1 C 7.01 g/m*3 9.1 C 0 km/h
663 15-01-2020 07:10:00 8.9 C 7.01 g/m*3 8.9 C 0 km/h
664 15-01-2020 07:15:00 8.7 C 6.92 g/m*3 8.7 C 0 km/h
665 15-01-2020 07:20:00 8.4 C 6.87 g/m*3 8.4 C 3.2 km/h
666 15-01-2020 07:25:00 8.3 C 6.91 g/m*3 8.3 C 1.6 km/h
667 15-01-2020 07:30:00 8.1 C 6.82 g/m*3 8.1 C 3.2 km/h
668 15-01-2020 07:35:00 8.1 C 6.91 g/m*3 8.1 C 1.6 km/h
669 15-01-2020 07:40:00 8.1 C 6.91 g/m*3 8.1 C 4.8 km/h
670 15-01-2020 07:45:00 8.1 C 6.91 g/m*3 8.1 C 0 km/h
671 15-01-2020 07:50:00 7.9 C 6.82 g/m*3 7.9 C 0 km/h
672 15-01-2020 07:55:00 7.7 C 6.73 g/m*3 7.7 C 0 km/h
673 15-01-2020 08:00:00 7.4 C 6.68 g/m*3 7.4 C 0 km/h
674 15-01-2020 08:05:00 7.2 C 6.59 g/m*3 7.2 C 0 km/h
675 15-01-2020 08:10:00 7 C 6.59 g/m*3 7 C 0 km/h
Sensor: Nr:Datum:Temp:Abs-Feuchte:Windchill:Wind:
Aussen-T/F 676 15-01-2020 08:15:00 6.9 C 6.62 g/m*3 6.9 C 0 km/h
677 15-01-2020 08:20:00 6.9 C 6.7 g/m*3 6.9 C 0 km/h
678 15-01-2020 08:25:00 6.9 C 6.7 g/m*3 6.9 C 0 km/h
679 15-01-2020 08:30:00 6.8 C 6.65 g/m*3 6.8 C 0 km/h
680 15-01-2020 08:35:00 6.8 C 6.65 g/m*3 6.8 C 0 km/h
681 15-01-2020 08:40:00 6.8 C 6.65 g/m*3 6.8 C 0 km/h
682 15-01-2020 08:45:00 6.9 C 6.77 g/m*3 6.9 C 1.6 km/h
683 15-01-2020 08:50:00 7 C 6.74 g/m*3 7 C 0 km/h
684 15-01-2020 08:55:00 7.2 C 6.83 g/m*3 6.13 C 6.4 km/h
685 15-01-2020 09:00:00 7.2 C 6.83 g/m*3 7.2 C 1.6 km/h
686 15-01-2020 09:05:00 7.3 C 6.87 g/m*3 7.3 C 1.6 km/h
687 15-01-2020 09:10:00 7.3 C 6.79 g/m*3 7.3 C 3.2 km/h
688 15-01-2020 09:15:00 7.4 C 6.84 g/m*3 7.4 C 1.6 km/h
689 15-01-2020 09:20:00 7.5 C 6.88 g/m*3 7.5 C 1.6 km/h
690 15-01-2020 09:25:00 7.6 C 6.85 g/m*3 7.6 C 1.6 km/h
691 15-01-2020 09:30:00 7.6 C 6.85 g/m*3 7.6 C 0 km/h
692 15-01-2020 09:35:00 7.6 C 6.93 g/m*3 7.6 C 0 km/h
693 15-01-2020 09:40:00 7.6 C 6.93 g/m*3 7.6 C 1.6 km/h
694 15-01-2020 09:45:00 7.5 C 6.88 g/m*3 7.5 C 0 km/h
695 15-01-2020 09:50:00 7.6 C 7.01 g/m*3 7.6 C 4.8 km/h
696 15-01-2020 09:55:00 7.7 C 7.05 g/m*3 7.7 C 3.2 km/h
697 15-01-2020 10:00:00 7.7 C 7.05 g/m*3 7.7 C 0 km/h
698 15-01-2020 10:05:00 7.8 C 7.02 g/m*3 7.8 C 1.6 km/h
699 15-01-2020 10:10:00 7.9 C 7.06 g/m*3 7.9 C 1.6 km/h
700 15-01-2020 10:15:00 7.9 C 7.06 g/m*3 7.9 C 1.6 km/h
Sensor: Nr:Datum:Temp:Abs-Feuchte:Windchill:Wind:
Aussen-T/F 701 15-01-2020 10:20:00 8 C 7.11 g/m*3 8 C 3.2 km/h
702 15-01-2020 10:25:00 8.1 C 7.16 g/m*3 8.1 C 0 km/h
703 15-01-2020 10:30:00 8.1 C 7.16 g/m*3 8.1 C 3.2 km/h
704 15-01-2020 10:35:00 8.1 C 7.07 g/m*3 8.1 C 0 km/h
705 15-01-2020 10:40:00 8.1 C 7.16 g/m*3 8.1 C 3.2 km/h
706 15-01-2020 10:45:00 8.1 C 7.16 g/m*3 8.1 C 4.8 km/h
707 15-01-2020 10:50:00 8.1 C 7.16 g/m*3 8.1 C 1.6 km/h
708 15-01-2020 10:55:00 8.3 C 7.25 g/m*3 8.3 C 0 km/h
709 15-01-2020 11:00:00 8.4 C 7.13 g/m*3 8.4 C 3.2 km/h
710 15-01-2020 11:05:00 8.7 C 7.26 g/m*3 8.7 C 1.6 km/h
711 15-01-2020 11:10:00 9 C 7.41 g/m*3 9 C 4.8 km/h
712 15-01-2020 11:15:00 9.3 C 7.28 g/m*3 8.16 C 8.1 km/h
713 15-01-2020 11:20:00 9.6 C 7.42 g/m*3 9.6 C 0 km/h
714 15-01-2020 11:25:00 9.8 C 7.33 g/m*3 9.8 C 3.2 km/h
715 15-01-2020 11:30:00 10.2 C 7.33 g/m*3 9.6 C 6.4 km/h
716 15-01-2020 11:35:00 10.6 C 7.42 g/m*3 10.6 C 4.8 km/h
717 15-01-2020 11:40:00 10.8 C 7.61 g/m*3 10.8 C 0 km/h
718 15-01-2020 11:45:00 10.9 C 7.46 g/m*3 10.9 C 3.2 km/h
719 15-01-2020 11:50:00 11.1 C 7.45 g/m*3 11.1 C 6.4 km/h
720 15-01-2020 11:55:00 11.2 C 7.5 g/m*3 11.2 C 0 km/h
721 15-01-2020 12:00:00 11.2 C 7.5 g/m*3 11.2 C 0 km/h
722 15-01-2020 12:05:00 11.3 C 7.55 g/m*3 11.3 C 4.8 km/h
723 15-01-2020 12:10:00 11.4 C 7.49 g/m*3 11.4 C 1.6 km/h
724 15-01-2020 12:15:00 11.5 C 7.33 g/m*3 11.5 C 8.1 km/h
725 15-01-2020 12:20:00 11.7 C 7.53 g/m*3 11.7 C 4.8 km/h
Sensor: Nr:Datum:Temp:Abs-Feuchte:Windchill:Wind:
Aussen-T/F 726 15-01-2020 12:25:00 11.8 C 7.47 g/m*3 11.8 C 3.2 km/h
727 15-01-2020 12:30:00 11.8 C 7.37 g/m*3 11.8 C 3.2 km/h
728 15-01-2020 12:35:00 11.9 C 7.31 g/m*3 11.9 C 8.1 km/h
729 15-01-2020 12:40:00 12 C 7.35 g/m*3 12 C 4.8 km/h
730 15-01-2020 12:45:00 12 C 7.46 g/m*3 12 C 6.4 km/h
731 15-01-2020 12:50:00 12 C 7.35 g/m*3 12 C 8.1 km/h
732 15-01-2020 12:55:00 12.1 C 7.4 g/m*3 12.1 C 6.4 km/h
733 15-01-2020 13:00:00 12.1 C 7.61 g/m*3 12.1 C 6.4 km/h
734 15-01-2020 13:05:00 12.2 C 7.45 g/m*3 12.2 C 8.1 km/h
735 15-01-2020 13:10:00 12.3 C 7.6 g/m*3 12.3 C 4.8 km/h
736 15-01-2020 13:15:00 12.4 C 7.54 g/m*3 12.4 C 1.6 km/h
737 15-01-2020 13:20:00 12.5 C 7.59 g/m*3 12.5 C 8.1 km/h
738 15-01-2020 13:25:00 12.7 C 7.46 g/m*3 12.7 C 9.7 km/h
739 15-01-2020 13:30:00 12.8 C 7.28 g/m*3 12.8 C 14.5 km/h
740 15-01-2020 13:35:00 12.9 C 7.44 g/m*3 12.9 C 6.4 km/h
741 15-01-2020 13:40:00 12.8 C 7.39 g/m*3 12.8 C 8.1 km/h
742 15-01-2020 13:45:00 12.8 C 7.5 g/m*3 12.8 C 8.1 km/h
743 15-01-2020 13:50:00 12.7 C 7.46 g/m*3 12.7 C 6.4 km/h
744 15-01-2020 13:55:00 12.7 C 7.46 g/m*3 12.7 C 4.8 km/h
745 15-01-2020 14:00:00 12.6 C 7.63 g/m*3 12.6 C 1.6 km/h
746 15-01-2020 14:05:00 12.4 C 7.54 g/m*3 12.4 C 3.2 km/h
747 15-01-2020 14:10:00 12.3 C 7.49 g/m*3 12.3 C 4.8 km/h
748 15-01-2020 14:15:00 12.1 C 7.4 g/m*3 12.1 C 1.6 km/h
749 15-01-2020 14:20:00 12.1 C 7.51 g/m*3 12.1 C 9.7 km/h
750 15-01-2020 14:25:00 12.1 C 7.51 g/m*3 12.1 C 4.8 km/h
Sensor: Nr:Datum:Temp:Abs-Feuchte:Windchill:Wind:
Aussen-T/F 751 15-01-2020 14:30:00 12.2 C 7.55 g/m*3 12.2 C 3.2 km/h
752 15-01-2020 14:35:00 12.2 C 7.55 g/m*3 12.2 C 9.7 km/h
753 15-01-2020 14:40:00 12.2 C 7.55 g/m*3 12.2 C 4.8 km/h
754 15-01-2020 14:45:00 12.3 C 7.6 g/m*3 12.3 C 6.4 km/h
755 15-01-2020 14:50:00 12.5 C 7.7 g/m*3 12.5 C 6.4 km/h
756 15-01-2020 14:55:00 12.6 C 7.85 g/m*3 12.6 C 11.3 km/h
757 15-01-2020 15:00:00 12.9 C 7.55 g/m*3 12.9 C 16.1 km/h
758 15-01-2020 15:05:00 13.1 C 7.53 g/m*3 13.1 C 9.7 km/h
759 15-01-2020 15:10:00 13.1 C 7.53 g/m*3 13.1 C 4.8 km/h
760 15-01-2020 15:15:00 13.2 C 7.46 g/m*3 13.2 C 19.3 km/h
761 15-01-2020 15:20:00 13.3 C 7.51 g/m*3 13.3 C 19.3 km/h
762 15-01-2020 15:25:00 13.3 C 7.51 g/m*3 13.3 C 11.3 km/h
763 15-01-2020 15:30:00 13.3 C 7.51 g/m*3 13.3 C 22.5 km/h
764 15-01-2020 15:35:00 13.3 C 7.51 g/m*3 13.3 C 16.1 km/h
765 15-01-2020 15:40:00 13.3 C 7.39 g/m*3 13.3 C 11.3 km/h
766 15-01-2020 15:45:00 13.3 C 7.51 g/m*3 13.3 C 6.4 km/h
767 15-01-2020 15:50:00 13.2 C 7.46 g/m*3 13.2 C 9.7 km/h
768 15-01-2020 15:55:00 13.2 C 7.46 g/m*3 13.2 C 16.1 km/h
769 15-01-2020 16:00:00 13.3 C 7.51 g/m*3 13.3 C 3.2 km/h
770 15-01-2020 16:05:00 13.3 C 7.51 g/m*3 13.3 C 3.2 km/h
771 15-01-2020 16:10:00 13.3 C 7.63 g/m*3 13.3 C 8.1 km/h
772 15-01-2020 16:15:00 13.2 C 7.58 g/m*3 13.2 C 14.5 km/h
773 15-01-2020 16:20:00 13.2 C 7.69 g/m*3 13.2 C 4.8 km/h
774 15-01-2020 16:25:00 13.1 C 7.65 g/m*3 13.1 C 4.8 km/h
775 15-01-2020 16:30:00 13.1 C 7.53 g/m*3 13.1 C 9.7 km/h
Sensor: Nr:Datum:Temp:Abs-Feuchte:Windchill:Wind:
Aussen-T/F 776 15-01-2020 16:35:00 13.1 C 7.65 g/m*3 13.1 C 3.2 km/h
777 15-01-2020 16:40:00 13 C 7.48 g/m*3 13 C 9.7 km/h
778 15-01-2020 16:45:00 12.9 C 7.55 g/m*3 12.9 C 3.2 km/h
779 15-01-2020 16:50:00 12.8 C 7.5 g/m*3 12.8 C 3.2 km/h
780 15-01-2020 16:55:00 12.8 C 7.73 g/m*3 12.8 C 0 km/h
781 15-01-2020 17:00:00 12.6 C 7.63 g/m*3 12.6 C 1.6 km/h
782 15-01-2020 17:05:00 12.6 C 7.63 g/m*3 12.6 C 4.8 km/h
783 15-01-2020 17:10:00 12.5 C 7.59 g/m*3 12.5 C 4.8 km/h
784 15-01-2020 17:15:00 12.4 C 7.65 g/m*3 12.4 C 8.1 km/h
785 15-01-2020 17:20:00 12.4 C 7.76 g/m*3 12.4 C 4.8 km/h
786 15-01-2020 17:25:00 12.3 C 7.6 g/m*3 12.3 C 4.8 km/h
787 15-01-2020 17:30:00 12.4 C 7.65 g/m*3 12.4 C 6.4 km/h
788 15-01-2020 17:35:00 12.4 C 7.65 g/m*3 12.4 C 3.2 km/h
789 15-01-2020 17:40:00 12.4 C 7.76 g/m*3 12.4 C 0 km/h
790 15-01-2020 17:45:00 12.3 C 7.71 g/m*3 12.3 C 0 km/h
791 15-01-2020 17:50:00 12.2 C 7.77 g/m*3 12.2 C 0 km/h
792 15-01-2020 17:55:00 12.1 C 7.83 g/m*3 12.1 C 0 km/h
793 15-01-2020 18:00:00 11.9 C 7.73 g/m*3 11.9 C 0 km/h
794 15-01-2020 18:05:00 11.8 C 7.68 g/m*3 11.8 C 0 km/h
795 15-01-2020 18:10:00 11.8 C 7.58 g/m*3 11.8 C 0 km/h
796 15-01-2020 18:15:00 11.9 C 7.73 g/m*3 11.9 C 0 km/h
797 15-01-2020 18:20:00 11.8 C 7.68 g/m*3 11.8 C 0 km/h
798 15-01-2020 18:25:00 11.8 C 7.58 g/m*3 11.8 C 4.8 km/h
799 15-01-2020 18:30:00 11.9 C 7.73 g/m*3 11.9 C 6.4 km/h
800 15-01-2020 18:35:00 12 C 7.67 g/m*3 12 C 6.4 km/h
Sensor: Nr:Datum:Temp:Abs-Feuchte:Windchill:Wind:
Aussen-T/F 801 15-01-2020 18:40:00 12.1 C 7.72 g/m*3 12.1 C 1.6 km/h
802 15-01-2020 18:45:00 12.2 C 7.66 g/m*3 12.2 C 4.8 km/h
803 15-01-2020 18:50:00 12.3 C 7.6 g/m*3 12.3 C 8.1 km/h
804 15-01-2020 18:55:00 12.5 C 7.7 g/m*3 12.5 C 4.8 km/h
805 15-01-2020 19:00:00 12.6 C 7.85 g/m*3 12.6 C 4.8 km/h
806 15-01-2020 19:05:00 12.6 C 7.74 g/m*3 12.6 C 3.2 km/h
807 15-01-2020 19:10:00 12.6 C 7.63 g/m*3 12.6 C 4.8 km/h
808 15-01-2020 19:15:00 12.7 C 7.79 g/m*3 12.7 C 3.2 km/h
809 15-01-2020 19:20:00 12.7 C 7.68 g/m*3 12.7 C 4.8 km/h
810 15-01-2020 19:25:00 12.6 C 7.85 g/m*3 12.6 C 1.6 km/h
811 15-01-2020 19:30:00 12.5 C 7.7 g/m*3 12.5 C 4.8 km/h
812 15-01-2020 19:35:00 12.6 C 7.85 g/m*3 12.6 C 14.5 km/h
813 15-01-2020 19:40:00 12.7 C 7.79 g/m*3 12.7 C 11.3 km/h
814 15-01-2020 19:45:00 12.8 C 7.73 g/m*3 12.8 C 8.1 km/h
815 15-01-2020 19:50:00 12.9 C 7.78 g/m*3 12.9 C 16.1 km/h
816 15-01-2020 19:55:00 12.9 C 7.78 g/m*3 12.9 C 11.3 km/h
817 15-01-2020 20:00:00 13 C 7.83 g/m*3 13 C 11.3 km/h
818 15-01-2020 20:05:00 13 C 7.94 g/m*3 13 C 16.1 km/h
819 15-01-2020 20:10:00 13.1 C 7.99 g/m*3 13.1 C 19.3 km/h
820 15-01-2020 20:15:00 13 C 7.94 g/m*3 13 C 16.1 km/h
821 15-01-2020 20:20:00 13.1 C 7.99 g/m*3 13.1 C 12.9 km/h
822 15-01-2020 20:25:00 12.9 C 8 g/m*3 12.9 C 11.3 km/h
823 15-01-2020 20:30:00 12.9 C 8 g/m*3 12.9 C 9.7 km/h
824 15-01-2020 20:35:00 12.8 C 7.95 g/m*3 12.8 C 11.3 km/h
825 15-01-2020 20:40:00 12.8 C 7.95 g/m*3 12.8 C 17.7 km/h
Sensor: Nr:Datum:Temp:Abs-Feuchte:Windchill:Wind:
Aussen-T/F 826 15-01-2020 20:45:00 12.8 C 7.95 g/m*3 12.8 C 11.3 km/h
827 15-01-2020 20:50:00 12.8 C 7.95 g/m*3 12.8 C 9.7 km/h
828 15-01-2020 20:55:00 12.8 C 7.95 g/m*3 12.8 C 11.3 km/h
829 15-01-2020 21:00:00 12.8 C 7.95 g/m*3 12.8 C 9.7 km/h
830 15-01-2020 21:05:00 12.8 C 7.95 g/m*3 12.8 C 14.5 km/h
831 15-01-2020 21:10:00 12.8 C 7.95 g/m*3 12.8 C 14.5 km/h
832 15-01-2020 21:15:00 12.9 C 8 g/m*3 12.9 C 19.3 km/h
833 15-01-2020 21:20:00 12.8 C 8.06 g/m*3 12.8 C 16.1 km/h
834 15-01-2020 21:25:00 12.8 C 8.06 g/m*3 12.8 C 11.3 km/h
835 15-01-2020 21:30:00 12.8 C 8.06 g/m*3 12.8 C 14.5 km/h
836 15-01-2020 21:35:00 12.7 C 8.01 g/m*3 12.7 C 14.5 km/h
837 15-01-2020 21:40:00 12.7 C 8.35 g/m*3 12.7 C 12.9 km/h
838 15-01-2020 21:45:00 12.6 C 8.63 g/m*3 12.6 C 11.3 km/h
839 15-01-2020 21:50:00 12.3 C 8.69 g/m*3 12.3 C 6.4 km/h
840 15-01-2020 21:55:00 12 C 8.74 g/m*3 12 C 4.8 km/h
841 15-01-2020 22:00:00 11.7 C 8.68 g/m*3 11.7 C 4.8 km/h
842 15-01-2020 22:05:00 11.4 C 8.62 g/m*3 11.4 C 4.8 km/h
843 15-01-2020 22:10:00 11.3 C 8.67 g/m*3 11.3 C 3.2 km/h
844 15-01-2020 22:15:00 11.1 C 8.76 g/m*3 11.1 C 4.8 km/h
845 15-01-2020 22:20:00 10.9 C 8.65 g/m*3 10.9 C 1.6 km/h
846 15-01-2020 22:25:00 10.8 C 8.7 g/m*3 10.8 C 3.2 km/h
847 15-01-2020 22:30:00 10.7 C 8.74 g/m*3 10.7 C 1.6 km/h
848 15-01-2020 22:35:00 10.6 C 8.69 g/m*3 10.6 C 1.6 km/h
849 15-01-2020 22:40:00 10.4 C 8.67 g/m*3 10.4 C 1.6 km/h
850 15-01-2020 22:45:00 10.3 C 8.71 g/m*3 10.3 C 4.8 km/h
Sensor: Nr:Datum:Temp:Abs-Feuchte:Windchill:Wind:
Aussen-T/F 851 15-01-2020 22:50:00 10.3 C 8.71 g/m*3 10.3 C 1.6 km/h
852 15-01-2020 22:55:00 10.2 C 8.66 g/m*3 10.2 C 0 km/h
853 15-01-2020 23:00:00 10.1 C 8.61 g/m*3 10.1 C 3.2 km/h
854 15-01-2020 23:05:00 10 C 8.55 g/m*3 10 C 4.8 km/h
855 15-01-2020 23:10:00 10 C 8.64 g/m*3 10 C 3.2 km/h
856 15-01-2020 23:15:00 9.9 C 8.59 g/m*3 9.9 C 4.8 km/h
857 15-01-2020 23:20:00 9.8 C 8.54 g/m*3 9.8 C 4.8 km/h
858 15-01-2020 23:25:00 9.8 C 8.54 g/m*3 9.8 C 4.8 km/h
859 15-01-2020 23:30:00 9.8 C 8.54 g/m*3 9.8 C 3.2 km/h
860 15-01-2020 23:35:00 9.7 C 8.39 g/m*3 9.7 C 3.2 km/h
861 15-01-2020 23:40:00 9.6 C 8.34 g/m*3 9.6 C 4.8 km/h
862 15-01-2020 23:45:00 9.4 C 8.32 g/m*3 9.4 C 3.2 km/h
863 15-01-2020 23:50:00 9.3 C 8.27 g/m*3 8.56 C 6.4 km/h
864 15-01-2020 23:55:00 9.2 C 8.22 g/m*3 9.2 C 4.8 km/h

Legende:
   Min
   Max


Maximal/Minimal-Werte vom 13.01.2020 - 15.01.2020

Sensor Min Max Avg
Temp
(Aussen-T/F)
4.7 °C
13-01-2020  04:35:00
13.3 °C
15-01-2020  15:20:00
9.07 °C
Abs-Feuchte
(Aussen-T/F)
6.26 g/m*3
13-01-2020  04:35:00
8.76 g/m*3
15-01-2020  22:15:00
7.21 g/m*3
Windchill
(Aussen-T/F)
2.87 C
13-01-2020  07:20:00
13.3 C
15-01-2020  15:20:00
8.87 C

Die Daten stammen von einer Davis Vantage Pro 2 Wetter-Station und werden unter Linux mit der Software wview2wettercgi und aufbereitet. Alle Angaben erfolgen ohne Gewähr für ihre Vollständigkeit oder Richtigkeit.
Kontakt: Rainer Krienke krienke@uni-koblenz.de . Meine Webseiten an der Uni Koblenz oder privat.
Version: $Revision: 0.78 $